createdAt,value
2024-02-07T00:01:40.082Z,100969.75
2024-02-07T00:05:52.542Z,100963.66
2024-02-07T00:10:05.567Z,100964.50
2024-02-07T00:14:18.073Z,100962.84
2024-02-07T00:18:30.518Z,100963.72
2024-02-07T00:22:43.087Z,100968.13
2024-02-07T00:26:55.409Z,100958.44
2024-02-07T00:31:08.783Z,100966.34
2024-02-07T00:35:23.019Z,100963.69
2024-02-07T00:39:38.516Z,100951.38
2024-02-07T00:43:52.258Z,100954.91
2024-02-07T00:48:05.353Z,100947.84
2024-02-07T00:52:18.346Z,100947.88
2024-02-07T00:56:31.705Z,100946.09
2024-02-07T01:00:44.102Z,100930.22
2024-02-07T01:04:56.616Z,100924.00
2024-02-07T01:09:11.622Z,100931.03
2024-02-07T01:13:24.027Z,100919.56
2024-02-07T01:17:36.318Z,100921.28
2024-02-07T01:21:48.740Z,100920.41
2024-02-07T01:26:02.525Z,100918.63
2024-02-07T01:30:15.127Z,100917.69
2024-02-07T01:34:27.560Z,100915.00
2024-02-07T01:38:40.225Z,100914.13
2024-02-07T01:42:52.562Z,100915.94
2024-02-07T01:47:12.909Z,100908.94
2024-02-07T01:51:26.142Z,100894.81
2024-02-07T01:55:39.744Z,100897.47
2024-02-07T01:59:52.243Z,100887.78
2024-02-07T02:04:05.032Z,100885.13
2024-02-07T02:08:17.467Z,100886.91
2024-02-07T02:12:31.734Z,100881.59
2024-02-07T02:16:44.179Z,100878.09
2024-02-07T02:20:56.743Z,100868.38
2024-02-07T02:25:38.755Z,100860.44
2024-02-07T02:29:55.540Z,100861.31
2024-02-07T02:34:08.670Z,100865.72
2024-02-07T02:38:25.006Z,100866.59
2024-02-07T02:42:37.415Z,100863.06
2024-02-07T02:46:50.539Z,100852.47
2024-02-07T02:51:04.323Z,100853.34
2024-02-07T02:55:16.851Z,100841.88
2024-02-07T02:59:31.185Z,100841.88
2024-02-07T03:03:55.397Z,100837.44
2024-02-07T03:08:11.782Z,100839.22
2024-02-07T03:12:24.248Z,100836.56
2024-02-07T03:16:37.588Z,100832.16
2024-02-07T03:20:51.094Z,100833.91
2024-02-07T03:25:03.573Z,100832.13
2024-02-07T03:29:15.894Z,100837.44
2024-02-07T03:33:28.492Z,100818.00
2024-02-07T03:37:41.287Z,100818.91
2024-02-07T03:41:53.856Z,100826.81
2024-02-07T03:46:07.609Z,100817.94
2024-02-07T03:50:26.996Z,100825.00
2024-02-07T03:54:51.348Z,100819.66
2024-02-07T03:59:04.678Z,100816.16
2024-02-07T04:03:19.646Z,100816.13
2024-02-07T04:07:32.115Z,100823.19
2024-02-07T04:11:44.577Z,100815.34
2024-02-07T04:16:15.603Z,100801.16
2024-02-07T04:20:46.214Z,100808.13
2024-02-07T04:25:16.995Z,100802.81
2024-02-07T04:29:47.708Z,100795.78
2024-02-07T04:34:18.664Z,100791.38
2024-02-07T04:38:49.691Z,100794.88
2024-02-07T04:43:20.485Z,100798.41
2024-02-07T04:47:51.237Z,100798.41
2024-02-07T04:52:21.934Z,100795.78
2024-02-07T04:56:53.182Z,100796.66
2024-02-07T05:01:24.010Z,100784.28
2024-02-07T05:05:54.791Z,100786.00
2024-02-07T05:10:26.260Z,100789.56
2024-02-07T05:14:50.386Z,100786.94
2024-02-07T05:19:03.866Z,100782.50
2024-02-07T05:23:18.465Z,100793.94
2024-02-07T05:27:33.608Z,100782.47
2024-02-07T05:31:46.927Z,100791.28
2024-02-07T05:36:00.360Z,100797.47
2024-02-07T05:40:13.437Z,100800.94
2024-02-07T05:44:25.874Z,100801.84
2024-02-07T05:48:40.817Z,100808.88
2024-02-07T05:52:53.188Z,100808.00
2024-02-07T05:57:05.612Z,100810.66
2024-02-07T06:01:18.820Z,100804.47
2024-02-07T06:05:31.325Z,100802.50
2024-02-07T06:09:43.708Z,100814.47
2024-02-07T06:13:56.156Z,100808.91
2024-02-07T06:18:08.940Z,100809.03
2024-02-07T06:22:21.395Z,100804.56
2024-02-07T06:26:33.806Z,100802.88
2024-02-07T06:30:46.194Z,100803.78
2024-02-07T06:34:58.629Z,100805.47
2024-02-07T06:39:11.035Z,100806.56
2024-02-07T06:43:23.910Z,100806.53
2024-02-07T06:47:36.321Z,100805.63
2024-02-07T06:51:49.436Z,100804.59
2024-02-07T06:56:02.240Z,100803.13
2024-02-07T07:00:15.626Z,100808.84
2024-02-07T07:04:28.138Z,100788.66
2024-02-07T07:08:40.591Z,100793.13
2024-02-07T07:12:52.971Z,100792.28
2024-02-07T07:17:05.590Z,100793.19
2024-02-07T07:21:18.114Z,100795.91
2024-02-07T07:25:30.670Z,100803.84
2024-02-07T07:29:43.157Z,100802.06
2024-02-07T07:33:56.749Z,100806.50
2024-02-07T07:38:10.653Z,100801.19
2024-02-07T07:42:23.212Z,100804.72
2024-02-07T07:46:35.724Z,100808.25
2024-02-07T07:50:48.203Z,100799.31
2024-02-07T07:55:00.609Z,100790.59
2024-02-07T07:59:14.934Z,100787.97
2024-02-07T08:03:27.307Z,100787.94
2024-02-07T08:07:39.662Z,100773.66
2024-02-07T08:11:52.076Z,100760.44
2024-02-07T08:16:04.599Z,100761.88
2024-02-07T08:20:17.997Z,100762.88
2024-02-07T08:24:33.421Z,100749.69
2024-02-07T08:28:50.625Z,100744.25
2024-02-07T08:33:07.204Z,100750.19
2024-02-07T08:37:31.905Z,100747.47
2024-02-07T08:41:44.471Z,100746.22
2024-02-07T08:45:56.822Z,100750.22
2024-02-07T08:50:09.705Z,100754.16
2024-02-07T08:54:22.102Z,100752.03
2024-02-07T08:58:36.448Z,100749.66
2024-02-07T09:02:54.601Z,100753.06
2024-02-07T09:07:07.078Z,100749.31
2024-02-07T09:11:19.631Z,100745.34
2024-02-07T09:15:31.966Z,100741.97
2024-02-07T09:19:44.289Z,100740.72
2024-02-07T09:23:58.181Z,100737.09
2024-02-07T09:28:10.537Z,100741.84
2024-02-07T09:32:22.847Z,100733.22
2024-02-07T09:36:40.034Z,100725.59
2024-02-07T09:41:00.705Z,100720.16
2024-02-07T09:45:15.796Z,100720.69
2024-02-07T09:49:29.852Z,100707.09
2024-02-07T09:53:44.422Z,100696.72
2024-02-07T09:57:58.069Z,100697.56
2024-02-07T10:02:13.437Z,100680.28
2024-02-07T10:06:27.159Z,100672.63
2024-02-07T10:10:40.271Z,100670.22
2024-02-07T10:14:52.705Z,100671.03
2024-02-07T10:19:05.629Z,100653.81
2024-02-07T10:23:18.086Z,100652.81
2024-02-07T10:27:30.434Z,100641.53
2024-02-07T10:31:42.831Z,100639.94
2024-02-07T10:36:05.596Z,100632.53
2024-02-07T10:40:18.115Z,100628.97
2024-02-07T10:44:30.607Z,100620.09
2024-02-07T10:48:43.531Z,100618.09
2024-02-07T10:52:56.337Z,100615.16
2024-02-07T10:57:10.500Z,100608.97
2024-02-07T11:01:24.073Z,100603.66
2024-02-07T11:05:37.610Z,100588.03
2024-02-07T11:09:50.124Z,100585.28
2024-02-07T11:14:05.284Z,100580.19
2024-02-07T11:18:18.058Z,100575.16
2024-02-07T11:22:37.823Z,100570.22
2024-02-07T11:26:51.176Z,100557.38
2024-02-07T11:31:06.952Z,100550.09
2024-02-07T11:35:23.774Z,100553.59
2024-02-07T11:39:41.508Z,100546.81
2024-02-07T11:44:03.036Z,100554.91
2024-02-07T11:48:22.863Z,100540.97
2024-02-07T11:52:40.003Z,100537.56
2024-02-07T11:56:56.706Z,100528.78
2024-02-07T12:01:12.577Z,100524.56
2024-02-07T12:05:26.496Z,100508.66
2024-02-07T12:09:38.974Z,100510.22
2024-02-07T12:13:51.463Z,100496.91
2024-02-07T12:18:06.373Z,100493.59
2024-02-07T12:22:21.733Z,100492.56
2024-02-07T12:26:34.138Z,100481.25
2024-02-07T12:30:46.565Z,100479.28
2024-02-07T12:35:01.440Z,100478.13
2024-02-07T12:39:13.966Z,100477.72
2024-02-07T12:43:27.980Z,100463.50
2024-02-07T12:47:40.825Z,100466.03
2024-02-07T12:51:53.352Z,100455.91
2024-02-07T12:56:08.649Z,100456.50
2024-02-07T13:00:21.421Z,100440.75
2024-02-07T13:04:34.286Z,100435.59
2024-02-07T13:08:47.897Z,100432.34
2024-02-07T13:13:00.280Z,100430.78
2024-02-07T13:17:12.651Z,100428.66
2024-02-07T13:21:25.341Z,100424.53
2024-02-07T13:25:38.388Z,100419.00
2024-02-07T13:29:51.199Z,100413.19
2024-02-07T13:34:03.756Z,100419.41
2024-02-07T13:38:26.665Z,100417.00
2024-02-07T13:42:46.105Z,100404.44
2024-02-07T13:47:00.376Z,100401.81
2024-02-07T13:51:13.317Z,100404.06
2024-02-07T13:55:25.732Z,100407.66
2024-02-07T13:59:38.266Z,100404.66
2024-02-07T14:03:50.700Z,100401.41
2024-02-07T14:08:03.261Z,100403.06
2024-02-07T14:12:15.674Z,100396.72
2024-02-07T14:16:28.270Z,100395.06
2024-02-07T14:20:40.752Z,100391.22
2024-02-07T14:24:53.325Z,100382.91
2024-02-07T14:29:05.905Z,100373.72
2024-02-07T14:33:19.191Z,100370.66
2024-02-07T14:37:37.988Z,100370.19
2024-02-07T14:41:50.427Z,100370.75
2024-02-07T14:46:02.784Z,100361.28
2024-02-07T14:50:20.013Z,100354.50
2024-02-07T14:54:32.465Z,100351.47
2024-02-07T14:58:44.949Z,100354.31
2024-02-07T15:02:57.282Z,100352.41
2024-02-07T15:07:09.720Z,100351.53
2024-02-07T15:11:23.317Z,100346.66
2024-02-07T15:15:36.153Z,100356.50
2024-02-07T15:19:49.162Z,100348.44
2024-02-07T15:24:01.524Z,100345.50
2024-02-07T15:28:14.029Z,100336.06
2024-02-07T15:32:26.478Z,100333.47
2024-02-07T15:36:39.054Z,100328.91
2024-02-07T15:40:53.076Z,100327.81
2024-02-07T15:45:06.944Z,100319.63
2024-02-07T15:49:19.562Z,100335.22
2024-02-07T15:53:32.280Z,100324.06
2024-02-07T15:57:44.720Z,100323.53
2024-02-07T16:01:57.595Z,100321.78
2024-02-07T16:06:10.298Z,100317.66
2024-02-07T16:10:22.880Z,100330.28
2024-02-07T16:14:36.315Z,100332.47
2024-02-07T16:18:48.646Z,100334.88
2024-02-07T16:23:01.865Z,100339.00
2024-02-07T16:27:14.300Z,100341.22
2024-02-07T16:31:26.784Z,100355.69
2024-02-07T16:35:39.767Z,100359.56
2024-02-07T16:39:53.317Z,100361.69
2024-02-07T16:44:08.844Z,100372.56
2024-02-07T16:48:21.350Z,100376.31
2024-02-07T16:52:35.148Z,100369.38
2024-02-07T16:56:47.526Z,100376.63
2024-02-07T17:01:00.296Z,100379.34
2024-02-07T17:05:13.533Z,100381.41
2024-02-07T17:09:25.961Z,100380.53
2024-02-07T17:13:39.952Z,100380.59
2024-02-07T17:17:52.680Z,100377.19
2024-02-07T17:22:06.352Z,100372.91
2024-02-07T17:26:18.935Z,100382.59
2024-02-07T17:30:36.756Z,100375.59
2024-02-07T17:34:50.339Z,100388.13
2024-02-07T17:39:02.804Z,100389.00
2024-02-07T17:43:15.151Z,100383.72
2024-02-07T17:47:29.041Z,100387.41
2024-02-07T17:51:44.978Z,100378.63
2024-02-07T17:55:57.379Z,100381.22
2024-02-07T18:00:10.390Z,100374.28
2024-02-07T18:04:22.842Z,100369.94
2024-02-07T18:08:35.985Z,100372.69
2024-02-07T18:12:48.811Z,100369.22
2024-02-07T18:17:01.435Z,100376.38
2024-02-07T18:21:14.104Z,100369.34
2024-02-07T18:25:26.729Z,100366.72
2024-02-07T18:29:39.088Z,100364.00
2024-02-07T18:33:51.627Z,100369.38
2024-02-07T18:38:04.282Z,100372.06
2024-02-07T18:42:16.916Z,100378.22
2024-02-07T18:46:29.227Z,100374.69
2024-02-07T18:50:42.464Z,100365.06
2024-02-07T18:54:56.475Z,100364.22
2024-02-07T18:59:08.878Z,100364.19
2024-02-07T19:03:22.372Z,100360.59
2024-02-07T19:07:34.700Z,100355.34
2024-02-07T19:11:47.278Z,100343.75
2024-02-07T19:15:59.719Z,100336.78
2024-02-07T19:20:12.470Z,100342.19
2024-02-07T19:24:25.011Z,100338.59
2024-02-07T19:28:38.467Z,100312.97
2024-02-07T19:32:50.982Z,100329.84
2024-02-07T19:37:03.445Z,100327.28
2024-02-07T19:41:15.946Z,100316.78
2024-02-07T19:45:28.252Z,100313.31
2024-02-07T19:49:40.788Z,100308.91
2024-02-07T19:53:53.343Z,100305.38
2024-02-07T19:58:05.698Z,100294.75
2024-02-07T20:02:18.222Z,100291.22
2024-02-07T20:06:32.079Z,100292.19
2024-02-07T20:10:46.453Z,100295.66
2024-02-07T20:15:01.270Z,100293.00
2024-02-07T20:19:13.990Z,100288.50
2024-02-07T20:23:26.616Z,100294.72
2024-02-07T20:27:39.966Z,100288.66
2024-02-07T20:31:52.510Z,100289.47
2024-02-07T20:36:05.645Z,100289.50
2024-02-07T20:40:18.061Z,100284.22
2024-02-07T20:44:30.652Z,100281.56
2024-02-07T20:48:43.844Z,100278.06
2024-02-07T20:52:59.273Z,100285.06
2024-02-07T20:57:14.756Z,100277.16
2024-02-07T21:01:27.125Z,100288.63
2024-02-07T21:05:40.344Z,100295.69
2024-02-07T21:09:52.793Z,100286.91
2024-02-07T21:14:05.415Z,100285.13
2024-02-07T21:18:18.022Z,100289.44
2024-02-07T21:22:30.430Z,100279.84
2024-02-07T21:26:42.960Z,100282.47
2024-02-07T21:30:55.343Z,100269.25
2024-02-07T21:35:09.874Z,100271.03
2024-02-07T21:39:23.483Z,100280.56
2024-02-07T21:43:35.826Z,100269.28
2024-02-07T21:47:48.349Z,100277.97
2024-02-07T21:52:00.768Z,100272.72
2024-02-07T21:56:13.174Z,100278.94
2024-02-07T22:00:27.038Z,100277.06
2024-02-07T22:04:39.581Z,100277.19
2024-02-07T22:08:52.076Z,100278.91
2024-02-07T22:13:04.722Z,100271.00
2024-02-07T22:17:17.036Z,100270.09
2024-02-07T22:21:29.483Z,100270.78
2024-02-07T22:25:41.952Z,100270.97
2024-02-07T22:29:54.536Z,100270.88
2024-02-07T22:34:07.923Z,100260.41
2024-02-07T22:38:20.496Z,100266.56
2024-02-07T22:42:32.866Z,100267.47
2024-02-07T22:46:49.354Z,100267.44
2024-02-07T22:51:01.802Z,100263.94
2024-02-07T22:55:14.348Z,100258.66
2024-02-07T22:59:26.965Z,100254.31
2024-02-07T23:03:39.348Z,100259.53
2024-02-07T23:07:51.813Z,100256.91
2024-02-07T23:12:04.392Z,100244.56
2024-02-07T23:16:16.855Z,100248.97
2024-02-07T23:20:29.291Z,100251.59
2024-02-07T23:24:41.880Z,100261.25
2024-02-07T23:28:54.786Z,100252.50
2024-02-07T23:33:07.975Z,100247.19
2024-02-07T23:37:20.377Z,100235.81
2024-02-07T23:41:35.747Z,100237.59
2024-02-07T23:45:48.061Z,100242.84
2024-02-07T23:50:00.668Z,100241.06
2024-02-07T23:54:15.198Z,100234.91
2024-02-07T23:58:27.996Z,100230.50
